Time;durP1;ratioP1;P1;durP2;ratioP2;P2;SDS_P1;SDS_P2;PMS_P1;PMS_P2;Temp;Humidity;BMP_temperature;BMP_pressure;BME280_temperature;BME280_humidity;BME280_pressure;Samples;Min_cycle;Max_cycle;Signal;HPM_P1;HPM_P2
2023/06/17 00:00:59;;;;;;;11.20;3.60;;;;;;;20.72;53.00;101256.44;7367246;19;20006;-66
2023/06/17 00:03:26;;;;;;;6.88;3.20;;;;;;;20.71;52.91;101255.59;7364130;19;20644;-65
2023/06/17 00:05:53;;;;;;;5.60;3.05;;;;;;;20.67;53.20;101246.34;7364325;19;20015;-66
2023/06/17 00:08:20;;;;;;;6.55;3.15;;;;;;;20.66;53.17;101251.91;7365645;19;20028;-67
2023/06/17 00:10:48;;;;;;;7.75;3.63;;;;;;;20.63;53.88;101244.28;7366902;19;20014;-66
2023/06/17 00:13:19;;;;;;;6.97;4.28;;;;;;;20.65;55.14;101251.09;7365454;19;20014;-66
2023/06/17 00:15:50;;;;;;;10.60;5.13;;;;;;;20.67;55.79;101242.88;7365359;19;20014;-66
2023/06/17 00:18:19;;;;;;;8.10;4.47;;;;;;;20.58;56.01;101239.56;7365007;19;20646;-66
2023/06/17 00:20:47;;;;;;;11.40;5.18;;;;;;;20.55;56.38;101245.34;7364867;19;20872;-66
2023/06/17 00:23:14;;;;;;;5.57;4.13;;;;;;;20.52;55.87;101239.59;7366503;19;20045;-67
2023/06/17 00:25:42;;;;;;;7.47;4.63;;;;;;;20.48;56.53;101239.16;7360656;19;21623;-67
2023/06/17 00:28:09;;;;;;;8.25;4.13;;;;;;;20.44;56.04;101230.75;7367498;19;20019;-66
2023/06/17 00:30:37;;;;;;;8.80;4.30;;;;;;;20.39;56.28;101227.88;7362239;19;20061;-66
2023/06/17 00:33:04;;;;;;;9.18;4.40;;;;;;;20.36;56.36;101220.28;7364988;19;20044;-66
2023/06/17 00:35:33;;;;;;;10.50;3.92;;;;;;;20.36;56.47;101222.97;7362960;19;20023;-66
2023/06/17 00:38:01;;;;;;;6.53;4.30;;;;;;;20.38;55.58;101212.84;7363526;19;20018;-66
2023/06/17 00:40:28;;;;;;;6.68;4.05;;;;;;;20.40;55.14;101209.97;7362681;19;20676;-67
2023/06/17 00:42:55;;;;;;;12.23;4.10;;;;;;;20.37;55.23;101205.03;7365885;19;20003;-65
2023/06/17 00:45:23;;;;;;;6.55;4.28;;;;;;;20.35;55.18;101207.94;7363551;19;20015;-66
2023/06/17 00:47:50;;;;;;;7.35;4.07;;;;;;;20.39;55.83;101205.66;7365008;19;20014;-66
2023/06/17 00:50:19;;;;;;;8.02;3.90;;;;;;;20.41;55.26;101206.28;7359034;19;20022;-67
2023/06/17 00:52:52;;;;;;;9.68;4.18;;;;;;;20.41;54.98;101206.28;7365681;19;20046;-66
2023/06/17 00:55:39;;;;;;;6.85;3.47;;;;;;;20.38;55.36;101204.00;7359829;19;20054;-66
2023/06/17 00:58:06;;;;;;;9.27;4.60;;;;;;;20.39;55.31;101203.00;7365277;19;20248;-66
2023/06/17 01:00:34;;;;;;;5.43;3.83;;;;;;;20.38;55.23;101202.16;7360680;19;20030;-66
2023/06/17 01:03:01;;;;;;;10.15;4.00;;;;;;;20.40;55.65;101199.28;7360597;19;20018;-65
2023/06/17 01:05:28;;;;;;;9.05;3.70;;;;;;;20.37;55.66;101194.34;7361148;19;20541;-65
2023/06/17 01:08:12;;;;;;;7.53;3.70;;;;;;;20.32;55.43;101191.47;7360985;19;20648;-66
2023/06/17 01:10:48;;;;;;;5.80;3.25;;;;;;;20.26;55.44;101185.09;7360725;19;20030;-66
2023/06/17 01:13:16;;;;;;;6.65;2.97;;;;;;;20.23;54.94;101190.00;7358303;19;20030;-65
2023/06/17 01:15:43;;;;;;;5.55;2.75;;;;;;;20.21;54.57;101194.75;7360134;19;20010;-66
2023/06/17 01:18:12;;;;;;;8.57;2.92;;;;;;;20.22;54.46;101191.88;7356060;19;20037;-67
2023/06/17 01:20:40;;;;;;;5.75;3.22;;;;;;;20.19;54.93;101200.31;7355753;19;20341;-66
2023/06/17 01:23:10;;;;;;;5.35;2.78;;;;;;;20.20;54.03;101196.59;7360865;19;20030;-65
2023/06/17 01:25:39;;;;;;;7.60;2.90;;;;;;;20.20;53.96;101201.97;7360139;19;20003;-65
2023/06/17 01:28:16;;;;;;;5.07;3.17;;;;;;;20.23;53.13;101200.72;7365156;19;20019;-66
2023/06/17 01:30:45;;;;;;;4.65;2.80;;;;;;;20.20;53.37;101199.28;7364930;19;20047;-65
2023/06/17 01:33:13;;;;;;;6.97;2.88;;;;;;;20.19;54.27;101202.16;7364535;19;20019;-66
2023/06/17 01:35:49;;;;;;;5.75;2.60;;;;;;;20.14;53.77;101197.44;7360213;19;20053;-67
2023/06/17 01:38:21;;;;;;;6.18;2.88;;;;;;;20.11;53.83;101187.16;7363437;19;20022;-65
2023/06/17 01:41:01;;;;;;;5.97;2.45;;;;;;;20.08;53.27;101184.88;7359772;19;20019;-67
2023/06/17 01:43:32;;;;;;;4.20;2.58;;;;;;;20.06;53.63;101184.28;7363138;19;20010;-66
2023/06/17 01:46:00;;;;;;;5.70;2.03;;;;;;;20.06;53.30;101179.75;7362189;19;20295;-65
2023/06/17 01:48:28;;;;;;;5.43;2.60;;;;;;;20.02;53.88;101169.66;7362361;19;20018;-66
2023/06/17 01:50:55;;;;;;;4.20;2.30;;;;;;;20.01;53.54;101171.53;7357811;19;20025;-66
2023/06/17 01:53:24;;;;;;;5.00;2.22;;;;;;;19.98;53.50;101177.28;7362342;19;20471;-67
2023/06/17 01:55:52;;;;;;;6.90;2.20;;;;;;;19.94;53.53;101168.03;7362467;19;20015;-66
2023/06/17 01:58:20;;;;;;;5.25;2.28;;;;;;;19.93;53.40;101158.38;7362274;19;20019;-67
2023/06/17 02:00:47;;;;;;;3.90;1.83;;;;;;;19.93;53.55;101168.25;7360438;19;20043;-66
2023/06/17 02:03:16;;;;;;;5.97;2.20;;;;;;;19.88;53.10;101152.00;7363415;19;20030;-65
2023/06/17 02:05:44;;;;;;;5.70;1.80;;;;;;;19.82;52.71;101150.16;7361956;19;20082;-65
2023/06/17 02:08:14;;;;;;;3.67;1.73;;;;;;;19.80;53.12;101145.03;7363118;19;20011;-65
2023/06/17 02:10:42;;;;;;;4.13;2.50;;;;;;;19.75;52.90;101136.81;7353295;19;20054;-65
2023/06/17 02:13:09;;;;;;;3.05;1.70;;;;;;;19.68;52.74;101138.66;7363181;19;20361;-66
2023/06/17 02:15:38;;;;;;;4.28;1.85;;;;;;;19.58;53.80;101131.06;7362601;19;20021;-66
2023/06/17 02:18:06;;;;;;;4.68;1.95;;;;;;;19.53;53.31;101124.69;7360820;19;20025;-66
2023/06/17 02:20:33;;;;;;;3.78;2.17;;;;;;;19.50;53.40;101133.94;7363833;19;20367;-65
2023/06/17 02:23:01;;;;;;;6.13;1.77;;;;;;;19.49;53.26;101140.28;7359868;19;20071;-66
2023/06/17 02:25:28;;;;;;;4.78;1.63;;;;;;;19.50;52.64;101147.28;7364779;19;20835;-66
2023/06/17 02:27:55;;;;;;;6.60;2.00;;;;;;;19.53;52.78;101154.03;7361489;19;20355;-65
2023/06/17 02:30:23;;;;;;;3.05;1.67;;;;;;;19.53;52.79;101144.19;7360243;19;20031;-66
2023/06/17 02:32:50;;;;;;;5.75;2.80;;;;;;;19.49;52.31;101132.28;7360175;19;20021;-67
2023/06/17 02:35:18;;;;;;;5.38;2.97;;;;;;;19.44;52.65;101131.22;7360594;19;20014;-65
2023/06/17 02:37:45;;;;;;;3.30;1.60;;;;;;;19.43;52.40;101125.03;7361643;19;20014;-67
2023/06/17 02:40:13;;;;;;;2.60;1.48;;;;;;;19.41;52.21;101120.91;7361859;19;20045;-67
2023/06/17 02:42:40;;;;;;;4.25;1.60;;;;;;;19.37;53.15;101133.03;7359470;19;20014;-66
2023/06/17 02:45:11;;;;;;;3.25;1.63;;;;;;;19.34;52.57;101117.44;7361154;19;20617;-66
2023/06/17 02:47:40;;;;;;;3.47;1.95;;;;;;;19.35;52.25;101124.44;7358939;19;20864;-65
2023/06/17 02:50:09;;;;;;;3.25;1.80;;;;;;;19.30;52.23;101111.66;7363038;19;20374;-65
2023/06/17 02:52:37;;;;;;;2.90;1.60;;;;;;;19.28;52.21;101107.56;7369195;19;20014;-66
2023/06/17 02:55:05;;;;;;;4.22;1.50;;;;;;;19.28;51.98;101116.41;7368564;19;20342;-65
2023/06/17 02:57:33;;;;;;;3.47;1.40;;;;;;;19.30;52.41;101117.00;7368325;19;20015;-65
2023/06/17 03:00:00;;;;;;;4.82;1.75;;;;;;;19.29;52.29;101110.03;7367307;19;20022;-66
2023/06/17 03:02:28;;;;;;;4.10;1.63;;;;;;;19.26;52.42;101102.41;7365129;19;21960;-66
2023/06/17 03:04:55;;;;;;;2.78;1.27;;;;;;;19.27;52.33;101103.25;7367568;19;20106;-65
2023/06/17 03:07:24;;;;;;;3.03;1.25;;;;;;;19.21;52.46;101103.03;7370894;19;20082;-66
2023/06/17 03:09:51;;;;;;;5.53;1.50;;;;;;;19.17;52.52;101096.47;7368958;19;20021;-66
2023/06/17 03:12:19;;;;;;;3.70;1.35;;;;;;;19.16;52.91;101096.66;7366423;19;20086;-66
2023/06/17 03:14:47;;;;;;;4.20;1.50;;;;;;;19.14;52.38;101091.53;7367251;19;20779;-67
2023/06/17 03:17:14;;;;;;;2.47;1.13;;;;;;;19.12;52.11;101093.59;7367326;19;20917;-66
2023/06/17 03:19:43;;;;;;;4.10;1.58;;;;;;;19.14;51.86;101096.88;7366237;19;20025;-65
2023/06/17 03:22:10;;;;;;;5.15;2.53;;;;;;;19.12;51.78;101087.41;7367073;19;20561;-66
2023/06/17 03:24:38;;;;;;;3.50;1.48;;;;;;;19.09;51.78;101088.66;7365654;19;20018;-66
2023/06/17 03:27:05;;;;;;;3.00;1.15;;;;;;;19.09;51.82;101083.31;7368501;19;20019;-66
2023/06/17 03:29:35;;;;;;;2.60;1.05;;;;;;;19.06;51.50;101081.03;7367161;19;20014;-66
2023/06/17 03:32:02;;;;;;;2.88;1.10;;;;;;;19.03;51.57;101077.97;7365940;19;20029;-65
2023/06/17 03:34:31;;;;;;;2.92;0.98;;;;;;;19.00;51.65;101073.84;7366083;19;20332;-66
2023/06/17 03:36:58;;;;;;;5.57;1.70;;;;;;;18.97;51.56;101079.59;7367849;19;20089;-66
2023/06/17 03:39:25;;;;;;;4.05;1.17;;;;;;;18.95;52.13;101084.28;7366249;19;20114;-66
2023/06/17 03:41:53;;;;;;;3.08;1.02;;;;;;;18.97;51.45;101071.59;7366176;19;20022;-65
2023/06/17 03:44:20;;;;;;;4.15;1.17;;;;;;;18.98;51.74;101070.56;7366084;19;20018;-65
2023/06/17 03:46:47;;;;;;;2.90;1.20;;;;;;;19.00;51.20;101073.00;7364996;19;20085;-65
2023/06/17 03:49:15;;;;;;;3.13;1.17;;;;;;;18.97;51.27;101076.09;7365702;19;21724;-66
2023/06/17 03:51:42;;;;;;;2.53;1.30;;;;;;;18.97;51.77;101084.94;7366384;19;20047;-66
2023/06/17 03:54:10;;;;;;;3.17;1.00;;;;;;;18.98;51.40;101085.75;7367275;19;20022;-65
2023/06/17 03:56:37;;;;;;;3.20;1.25;;;;;;;18.97;51.76;101073.44;7366407;19;20018;-65
2023/06/17 03:59:05;;;;;;;2.90;0.95;;;;;;;18.98;51.27;101077.75;7366860;19;21056;-65
2023/06/17 04:01:32;;;;;;;2.92;0.93;;;;;;;18.93;51.04;101081.03;7364338;19;20025;-66
2023/06/17 04:04:00;;;;;;;3.83;0.98;;;;;;;18.90;51.32;101080.59;7362758;19;20776;-67
2023/06/17 04:06:28;;;;;;;2.88;1.25;;;;;;;18.82;52.03;101075.44;7363886;19;20176;-67
2023/06/17 04:08:57;;;;;;;1.83;1.00;;;;;;;18.87;51.84;101070.31;7359244;19;21109;-67
2023/06/17 04:11:25;;;;;;;3.10;1.02;;;;;;;18.91;51.88;101076.91;7365549;19;20038;-66
2023/06/17 04:13:52;;;;;;;4.03;1.20;;;;;;;18.92;51.47;101060.69;7365820;19;20014;-67
2023/06/17 04:16:21;;;;;;;2.55;1.10;;;;;;;18.94;51.83;101071.19;7364529;19;20816;-65
2023/06/17 04:18:49;;;;;;;3.55;1.30;;;;;;;18.93;51.65;101062.34;7361283;19;20011;-66
2023/06/17 04:21:16;;;;;;;6.43;1.35;;;;;;;18.92;51.82;101054.53;7366012;19;20025;-66
2023/06/17 04:23:43;;;;;;;2.42;1.10;;;;;;;18.91;52.71;101058.22;7366086;19;20495;-65
2023/06/17 04:26:13;;;;;;;4.93;1.73;;;;;;;18.92;52.12;101052.72;7366831;19;20017;-66
2023/06/17 04:28:40;;;;;;;2.72;1.08;;;;;;;18.95;51.84;101056.78;7365586;19;20014;-64
2023/06/17 04:31:10;;;;;;;3.92;1.20;;;;;;;18.91;52.12;101048.38;7363642;19;20018;-64
2023/06/17 04:33:38;;;;;;;3.38;1.10;;;;;;;18.91;52.51;101048.38;7364018;19;20045;-65
2023/06/17 04:36:08;;;;;;;2.38;1.20;;;;;;;18.93;52.39;101041.03;7364213;19;20018;-67
2023/06/17 04:38:36;;;;;;;3.25;1.48;;;;;;;18.94;52.86;101036.50;7364410;19;20018;-70
2023/06/17 04:41:05;;;;;;;3.42;1.40;;;;;;;18.98;53.07;101040.41;7365128;19;20073;-66
2023/06/17 04:43:33;;;;;;;3.88;1.17;;;;;;;19.00;52.94;101035.66;7363000;19;20015;-65
2023/06/17 04:46:01;;;;;;;4.28;1.70;;;;;;;18.96;53.22;101029.94;7363946;19;20360;-65
2023/06/17 04:48:29;;;;;;;3.15;1.50;;;;;;;19.03;53.39;101029.94;7364904;19;20015;-65
2023/06/17 04:50:57;;;;;;;4.00;1.10;;;;;;;19.00;53.14;101025.00;7361420;19;20085;-66
2023/06/17 04:53:26;;;;;;;6.63;1.55;;;;;;;19.03;53.07;101024.63;7363957;19;20044;-65
2023/06/17 04:55:54;;;;;;;3.50;1.13;;;;;;;19.03;53.42;101029.94;7364594;19;20055;-66
2023/06/17 04:58:21;;;;;;;4.32;1.23;;;;;;;19.03;53.57;101027.28;7364126;19;20024;-65
2023/06/17 05:00:49;;;;;;;4.00;1.30;;;;;;;19.06;53.64;101016.19;7365417;19;20498;-65
2023/06/17 05:03:16;;;;;;;4.75;1.30;;;;;;;19.12;53.81;101016.22;7361455;19;20825;-66
2023/06/17 05:05:44;;;;;;;4.13;1.35;;;;;;;19.13;53.48;101027.72;7361160;19;21857;-67
2023/06/17 05:08:11;;;;;;;2.83;1.20;;;;;;;19.13;54.19;101023.19;7364360;19;20019;-66
2023/06/17 05:10:38;;;;;;;3.80;1.40;;;;;;;19.17;54.24;101032.44;7363223;19;20027;-66
2023/06/17 05:13:06;;;;;;;4.20;1.30;;;;;;;19.21;53.91;101033.66;7362974;19;20014;-66
2023/06/17 05:15:33;;;;;;;3.25;1.30;;;;;;;19.23;53.72;101033.47;7362031;19;20017;-66
2023/06/17 05:18:01;;;;;;;3.15;1.50;;;;;;;19.28;53.40;101032.84;7361821;19;20089;-65
2023/06/17 05:20:28;;;;;;;4.60;1.63;;;;;;;19.31;53.33;101030.59;7362803;19;20018;-66
2023/06/17 05:22:55;;;;;;;4.75;1.40;;;;;;;19.32;53.05;101028.75;7362606;19;20033;-66
2023/06/17 05:25:23;;;;;;;4.07;1.67;;;;;;;19.32;53.03;101042.91;7363980;19;20019;-66
2023/06/17 05:27:51;;;;;;;3.45;1.52;;;;;;;19.32;52.52;101032.22;7362539;19;20176;-66
2023/06/17 05:30:18;;;;;;;6.15;1.77;;;;;;;19.36;52.60;101028.13;7363352;19;20026;-65
2023/06/17 05:32:46;;;;;;;3.20;1.20;;;;;;;19.35;52.57;101031.00;7360264;19;20096;-66
2023/06/17 05:35:13;;;;;;;4.65;1.23;;;;;;;19.35;52.17;101031.00;7361463;19;20022;-65
2023/06/17 05:37:40;;;;;;;5.45;1.60;;;;;;;19.36;52.06;101025.44;7363549;19;20037;-66
2023/06/17 05:40:08;;;;;;;4.57;1.38;;;;;;;19.39;52.05;101019.72;7363899;19;20114;-65
2023/06/17 05:42:35;;;;;;;4.22;1.50;;;;;;;19.40;51.91;101020.53;7362580;19;20042;-66
2023/06/17 05:45:03;;;;;;;4.47;1.00;;;;;;;19.42;52.26;101018.47;7364259;19;20611;-66
2023/06/17 05:47:30;;;;;;;4.07;1.40;;;;;;;19.34;51.88;101013.34;7359263;19;20045;-65
2023/06/17 05:49:58;;;;;;;4.60;1.30;;;;;;;19.36;51.77;101017.44;7359035;19;20018;-66
2023/06/17 05:52:25;;;;;;;5.82;1.27;;;;;;;19.41;51.57;101024.84;7363901;19;20026;-66
2023/06/17 05:54:52;;;;;;;3.13;1.13;;;;;;;19.44;51.26;101027.09;7362639;19;20105;-66
2023/06/17 05:57:21;;;;;;;3.30;1.98;;;;;;;19.50;51.42;101029.81;7360279;19;20305;-66
2023/06/17 05:59:48;;;;;;;4.18;1.05;;;;;;;19.52;50.91;101029.59;7362798;19;20025;-66
2023/06/17 06:02:15;;;;;;;2.55;0.98;;;;;;;19.52;51.17;101026.91;7359914;19;20029;-67
2023/06/17 06:04:42;;;;;;;3.13;1.20;;;;;;;19.55;51.22;101029.19;7361681;19;20090;-65
2023/06/17 06:07:10;;;;;;;3.47;1.30;;;;;;;19.55;51.32;101023.84;7363001;19;20015;-66
2023/06/17 06:09:37;;;;;;;3.45;1.35;;;;;;;19.56;51.10;101020.13;7360557;19;20901;-66
2023/06/17 06:12:05;;;;;;;2.85;1.13;;;;;;;19.57;51.23;101030.63;7363179;19;21977;-65
2023/06/17 06:14:32;;;;;;;3.20;1.13;;;;;;;19.56;51.12;101025.47;7362321;19;20042;-65
2023/06/17 06:16:59;;;;;;;5.60;1.25;;;;;;;19.58;51.23;101024.25;7361112;19;20015;-65
2023/06/17 06:19:26;;;;;;;2.38;0.98;;;;;;;19.62;51.07;101022.81;7360252;19;20018;-65
2023/06/17 06:21:54;;;;;;;3.58;1.10;;;;;;;19.64;51.08;101022.59;7361809;19;20014;-66
2023/06/17 06:24:21;;;;;;;4.07;1.38;;;;;;;19.69;51.09;101022.81;7361219;19;20345;-65
2023/06/17 06:26:48;;;;;;;5.90;1.58;;;;;;;19.71;51.06;101020.72;7361970;19;20022;-66
2023/06/17 06:29:15;;;;;;;2.58;1.17;;;;;;;19.75;51.27;101024.66;7361393;19;20015;-67
2023/06/17 06:31:43;;;;;;;3.78;1.20;;;;;;;19.82;51.95;101021.94;7361311;19;20126;-66
2023/06/17 06:34:11;;;;;;;4.05;1.35;;;;;;;19.89;51.08;101030.78;7359092;19;20018;-65
2023/06/17 06:36:38;;;;;;;4.90;1.40;;;;;;;19.94;51.15;101030.97;7358449;19;20050;-66
2023/06/17 06:39:05;;;;;;;2.75;1.00;;;;;;;19.96;50.79;101027.06;7361194;19;20517;-66
2023/06/17 06:41:33;;;;;;;3.17;1.00;;;;;;;20.02;50.78;101031.56;7363523;19;20426;-66
2023/06/17 06:44:00;;;;;;;4.18;1.95;;;;;;;20.10;50.61;101029.72;7359308;19;20037;-66
2023/06/17 06:46:27;;;;;;;3.78;1.30;;;;;;;20.19;50.01;101033.78;7360847;19;20470;-65
2023/06/17 06:48:55;;;;;;;3.28;1.00;;;;;;;20.24;49.55;101040.13;7360359;19;20836;-65
2023/06/17 06:51:22;;;;;;;6.65;1.27;;;;;;;20.23;49.75;101029.66;7362849;19;21758;-65
2023/06/17 06:53:49;;;;;;;2.72;1.10;;;;;;;20.22;50.26;101031.50;7359974;19;20043;-66
2023/06/17 06:56:17;;;;;;;3.97;1.00;;;;;;;20.23;49.83;101030.47;7359574;19;20518;-66
2023/06/17 06:58:46;;;;;;;2.58;1.25;;;;;;;20.35;49.58;101036.84;7363022;19;20510;-66
2023/06/17 07:01:13;;;;;;;3.90;0.90;;;;;;;20.38;49.45;101044.44;7361516;19;20047;-65
2023/06/17 07:03:41;;;;;;;3.15;0.85;;;;;;;20.40;49.71;101036.22;7359024;19;20011;-67
2023/06/17 07:06:09;;;;;;;3.58;1.58;;;;;;;20.41;49.71;101048.56;7359154;19;20056;-65
2023/06/17 07:08:36;;;;;;;2.17;0.90;;;;;;;20.44;49.76;101037.41;7358995;19;20058;-66
2023/06/17 07:11:03;;;;;;;5.80;1.10;;;;;;;20.46;49.54;101038.03;7362308;19;20010;-66
2023/06/17 07:13:31;;;;;;;7.20;1.00;;;;;;;20.57;49.49;101033.88;7363029;19;20051;-66
2023/06/17 07:15:59;;;;;;;5.70;1.70;;;;;;;20.56;49.87;101033.06;7360100;19;20036;-66
2023/06/17 07:18:26;;;;;;;3.25;1.88;;;;;;;20.59;49.71;101035.28;7359580;19;20021;-66
2023/06/17 07:20:53;;;;;;;5.05;1.50;;;;;;;20.67;49.45;101040.38;7360184;19;20793;-66
2023/06/17 07:23:21;;;;;;;5.95;1.30;;;;;;;20.66;49.90;101035.28;7360261;19;20015;-66
2023/06/17 07:25:48;;;;;;;3.85;1.10;;;;;;;20.62;49.59;101037.53;7361016;19;20015;-65
2023/06/17 07:28:16;;;;;;;4.47;1.30;;;;;;;20.66;50.36;101040.63;7361597;19;20019;-65
2023/06/17 07:30:43;;;;;;;3.50;1.00;;;;;;;20.68;50.01;101041.19;7357937;19;20033;-65
2023/06/17 07:33:10;;;;;;;4.95;1.40;;;;;;;20.75;49.74;101040.16;7359380;19;20011;-66
2023/06/17 07:35:38;;;;;;;3.38;1.20;;;;;;;20.77;50.53;101043.44;7361656;19;20022;-66
2023/06/17 07:38:05;;;;;;;3.47;1.45;;;;;;;20.80;49.69;101039.50;7369911;19;20509;-66
2023/06/17 07:40:33;;;;;;;2.55;1.00;;;;;;;20.90;49.85;101040.69;7368434;19;20142;-66
2023/06/17 07:43:00;;;;;;;4.53;1.35;;;;;;;21.17;48.84;101041.38;7366689;19;20021;-66
2023/06/17 07:45:27;;;;;;;4.70;1.70;;;;;;;21.43;48.72;101037.66;7367530;19;20024;-65
2023/06/17 07:47:55;;;;;;;6.13;1.33;;;;;;;21.64;48.10;101039.09;7366607;19;20478;-66
2023/06/17 07:50:22;;;;;;;9.02;1.45;;;;;;;21.67;48.72;101031.47;7363941;19;20014;-66
2023/06/17 07:52:50;;;;;;;4.65;1.40;;;;;;;21.59;48.98;101031.72;7364727;19;20029;-66
2023/06/17 07:55:17;;;;;;;4.20;1.35;;;;;;;21.45;48.69;101030.22;7368532;19;20021;-66
2023/06/17 07:57:48;;;;;;;6.22;1.50;;;;;;;21.40;48.79;101030.06;7364919;19;20016;-66
2023/06/17 08:00:15;;;;;;;2.88;1.13;;;;;;;21.42;48.94;101038.69;7366702;19;20014;-66
2023/06/17 08:02:43;;;;;;;6.00;1.30;;;;;;;21.43;48.75;101036.84;7362761;19;20117;-66
2023/06/17 08:05:10;;;;;;;3.17;1.25;;;;;;;21.34;48.89;101030.91;7364799;19;20987;-67
2023/06/17 08:07:38;;;;;;;4.95;1.13;;;;;;;21.38;49.23;101040.19;7367047;19;20045;-66
2023/06/17 08:10:06;;;;;;;8.27;1.35;;;;;;;21.38;49.03;101034.81;7366605;19;21630;-66
2023/06/17 08:12:36;;;;;;;6.60;1.15;;;;;;;21.36;50.09;101047.59;7362758;19;20015;-66
2023/06/17 08:15:03;;;;;;;4.88;1.00;;;;;;;21.35;49.90;101040.59;7366357;19;20619;-65
2023/06/17 08:17:31;;;;;;;2.08;1.05;;;;;;;21.35;49.91;101045.94;7364331;19;20046;-66
2023/06/17 08:19:58;;;;;;;5.30;1.25;;;;;;;21.39;49.69;101040.97;7364629;19;20006;-66
2023/06/17 08:22:26;;;;;;;5.25;1.30;;;;;;;21.35;49.43;101037.91;7365253;19;20517;-65
2023/06/17 08:24:53;;;;;;;4.45;1.40;;;;;;;21.40;49.45;101038.09;7363475;19;20022;-66
2023/06/17 08:27:21;;;;;;;4.03;1.13;;;;;;;21.43;49.67;101032.31;7365202;19;20041;-65
2023/06/17 08:29:48;;;;;;;4.53;1.25;;;;;;;21.51;49.20;101032.03;7363485;19;20022;-66
2023/06/17 08:32:15;;;;;;;4.13;1.52;;;;;;;21.61;49.58;101028.84;7362047;19;20627;-65
2023/06/17 08:34:42;;;;;;;4.65;1.15;;;;;;;22.01;48.08;101030.13;7364958;19;20022;-66
2023/06/17 08:37:13;;;;;;;3.55;1.00;;;;;;;22.15;47.71;101026.22;7366303;19;20025;-66
2023/06/17 08:39:42;;;;;;;4.68;1.10;;;;;;;22.17;48.10;101017.97;7367971;19;20022;-66
2023/06/17 08:42:09;;;;;;;9.15;1.15;;;;;;;22.15;49.03;101015.50;7362220;19;20466;-66
2023/06/17 08:44:41;;;;;;;6.55;1.40;;;;;;;22.13;48.47;101020.28;7362262;19;20025;-66
2023/06/17 08:47:13;;;;;;;5.13;1.30;;;;;;;22.17;48.42;101015.28;7363151;19;20990;-65
2023/06/17 08:49:44;;;;;;;3.08;1.23;;;;;;;22.22;49.29;101012.75;7361922;19;20045;-65
2023/06/17 08:52:13;;;;;;;5.85;1.23;;;;;;;22.31;49.58;101013.25;7365417;19;20022;-65
2023/06/17 08:54:41;;;;;;;3.00;1.48;;;;;;;22.38;49.14;101011.34;7365128;19;20021;-66
2023/06/17 08:57:12;;;;;;;4.88;1.30;;;;;;;22.45;48.51;101020.91;7363715;19;20685;-65
2023/06/17 08:59:41;;;;;;;4.18;1.40;;;;;;;22.51;48.86;101006.59;7363803;19;20110;-67
2023/06/17 09:02:12;;;;;;;4.30;1.85;;;;;;;22.60;48.50;101001.75;7364548;19;20034;-66
2023/06/17 09:04:40;;;;;;;4.20;1.48;;;;;;;22.61;48.75;100993.47;7350363;19;20025;-65
2023/06/17 09:07:09;;;;;;;3.65;1.35;;;;;;;22.66;49.60;101000.81;7364310;19;21007;-66
2023/06/17 09:09:37;;;;;;;4.70;1.65;;;;;;;22.67;49.19;100998.97;7361532;19;20037;-67
2023/06/17 09:12:06;;;;;;;37.85;3.88;;;;;;;22.66;49.54;100987.41;7334055;19;20049;-66
2023/06/17 09:14:34;;;;;;;40.50;3.90;;;;;;;22.65;49.21;100993.84;7358805;19;20510;-66
2023/06/17 09:17:02;;;;;;;9.75;2.25;;;;;;;22.66;49.35;100981.22;7343537;19;20024;-66
2023/06/17 09:19:32;;;;;;;5.47;2.15;;;;;;;22.68;48.83;100982.66;7356522;19;20026;-66
2023/06/17 09:22:05;;;;;;;7.10;1.58;;;;;;;22.69;49.55;100988.84;7359215;19;20035;-66
2023/06/17 09:24:33;;;;;;;4.13;1.58;;;;;;;22.70;49.57;100979.75;7359043;19;20114;-66
2023/06/17 09:27:02;;;;;;;5.43;1.80;;;;;;;22.68;49.45;100982.66;7358239;19;20328;-67
2023/06/17 09:29:31;;;;;;;5.55;1.95;;;;;;;22.61;49.49;100988.09;7358077;19;20020;-65
2023/06/17 09:32:04;;;;;;;4.15;2.10;;;;;;;22.60;50.04;100975.72;7355387;19;20018;-65
2023/06/17 09:34:31;;;;;;;7.18;2.00;;;;;;;22.64;49.56;100975.28;7357232;19;20018;-65
2023/06/17 09:37:00;;;;;;;5.43;2.00;;;;;;;22.67;49.82;100977.50;7361266;19;20505;-66
2023/06/17 09:39:30;;;;;;;7.28;2.55;;;;;;;22.63;49.61;100971.78;7362384;19;20022;-66
2023/06/17 09:42:08;;;;;;;7.95;2.10;;;;;;;22.63;50.14;100989.75;7360228;19;20113;-65
2023/06/17 09:44:37;;;;;;;6.30;2.15;;;;;;;22.60;50.83;100978.41;7361749;19;20022;-66
2023/06/17 09:47:06;;;;;;;3.50;1.80;;;;;;;22.60;50.57;100970.34;7360954;19;20482;-67
2023/06/17 09:49:35;;;;;;;5.47;2.00;;;;;;;22.64;50.32;100977.97;7358092;19;20093;-65
2023/06/17 09:52:08;;;;;;;6.07;2.22;;;;;;;22.67;50.48;100972.13;7359795;19;21877;-65
2023/06/17 09:54:36;;;;;;;10.77;4.00;;;;;;;22.78;50.30;100966.84;7362941;19;20014;-65
2023/06/17 09:57:09;;;;;;;7.28;2.50;;;;;;;22.88;49.93;100967.09;7362645;19;20455;-65
2023/06/17 09:59:37;;;;;;;7.65;2.58;;;;;;;22.93;50.31;100972.59;7360200;19;20014;-65
2023/06/17 10:02:05;;;;;;;9.40;3.35;;;;;;;22.99;50.42;100968.16;7360739;19;20014;-65
2023/06/17 10:04:32;;;;;;;8.45;2.45;;;;;;;23.11;49.90;100962.81;7359239;19;20078;-65
2023/06/17 10:07:07;;;;;;;6.13;2.45;;;;;;;23.21;49.85;100963.06;7361829;19;20041;-65
2023/06/17 10:09:35;;;;;;;8.05;3.10;;;;;;;23.21;49.99;100963.84;7355647;19;20976;-65
2023/06/17 10:12:04;;;;;;;6.93;2.30;;;;;;;23.31;49.84;100963.31;7360562;19;20010;-65
2023/06/17 10:14:33;;;;;;;5.45;2.53;;;;;;;23.37;49.85;100962.34;7362993;19;20091;-66
2023/06/17 10:17:03;;;;;;;7.90;2.30;;;;;;;23.46;49.75;100955.63;7361846;19;20014;-66
2023/06/17 10:19:34;;;;;;;4.45;2.22;;;;;;;23.51;49.60;100957.59;7360111;19;20418;-64
2023/06/17 10:22:05;;;;;;;4.47;2.78;;;;;;;23.57;49.54;100962.06;7362294;19;20078;-66
2023/06/17 10:24:34;;;;;;;8.98;3.10;;;;;;;23.67;49.38;100959.59;7361437;19;20059;-65
2023/06/17 10:27:03;;;;;;;7.15;2.90;;;;;;;23.75;49.12;100953.84;7361268;19;20778;-65
2023/06/17 10:29:32;;;;;;;15.30;4.45;;;;;;;23.80;49.36;100954.75;7362846;19;20018;-66
2023/06/17 10:32:19;;;;;;;8.98;3.35;;;;;;;23.83;49.32;100958.84;7356893;19;20097;-64
2023/06/17 10:35:06;;;;;;;4.50;2.78;;;;;;;23.87;49.20;100957.34;7358611;19;20105;-65
2023/06/17 10:37:44;;;;;;;5.15;2.78;;;;;;;23.97;49.52;100949.47;7360460;19;20782;-66
2023/06/17 10:40:23;;;;;;;3.63;1.90;;;;;;;24.01;49.87;100944.44;7356284;19;20011;-65
2023/06/17 10:42:53;;;;;;;8.27;2.92;;;;;;;24.04;49.84;100952.00;7360920;19;20022;-65
2023/06/17 10:45:21;;;;;;;8.00;2.90;;;;;;;24.09;49.68;100942.19;7359139;19;20019;-66
2023/06/17 10:47:48;;;;;;;7.03;3.13;;;;;;;24.15;50.07;100940.41;7359705;19;20038;-65
2023/06/17 10:50:21;;;;;;;6.22;3.03;;;;;;;24.21;49.53;100942.19;7357234;19;20510;-66
2023/06/17 10:52:55;;;;;;;5.47;2.17;;;;;;;24.28;50.03;100942.81;7360460;19;20629;-66
2023/06/17 10:55:22;;;;;;;7.00;2.72;;;;;;;24.34;50.41;100939.19;7358294;19;20023;-67
2023/06/17 10:57:50;;;;;;;6.15;2.65;;;;;;;24.36;49.74;100942.47;7361030;19;20089;-68
2023/06/17 11:00:20;;;;;;;7.88;3.40;;;;;;;24.46;49.19;100931.88;7358424;19;20013;-67
2023/06/17 11:02:48;;;;;;;8.27;3.25;;;;;;;24.52;49.14;100936.31;7359188;19;20034;-66
2023/06/17 11:05:19;;;;;;;7.70;3.17;;;;;;;24.59;49.00;100936.94;7354263;19;20067;-65
2023/06/17 11:07:47;;;;;;;8.77;3.30;;;;;;;24.64;49.26;100931.66;7361695;19;20014;-66
2023/06/17 11:10:16;;;;;;;9.20;3.30;;;;;;;24.67;49.32;100933.88;7357387;19;20014;-66
2023/06/17 11:12:46;;;;;;;8.63;3.10;;;;;;;24.67;49.48;100944.66;7365767;19;20014;-66
2023/06/17 11:15:16;;;;;;;6.88;3.20;;;;;;;24.67;49.46;100931.19;7367738;19;20099;-67
2023/06/17 11:17:44;;;;;;;8.48;2.63;;;;;;;24.72;49.90;100925.06;7364869;19;20055;-66
2023/06/17 11:20:12;;;;;;;9.57;3.13;;;;;;;24.80;49.64;100926.53;7366913;19;20829;-66
2023/06/17 11:22:39;;;;;;;6.90;3.05;;;;;;;24.91;48.88;100931.06;7367203;19;20003;-65
2023/06/17 11:25:09;;;;;;;8.48;3.30;;;;;;;24.94;49.04;100930.59;7364762;19;20023;-67
2023/06/17 11:27:38;;;;;;;14.55;3.78;;;;;;;24.93;47.20;100919.00;7364222;19;20109;-65
2023/06/17 11:30:08;;;;;;;9.40;3.50;;;;;;;24.88;47.42;100918.91;7364638;19;20053;-68